sensor_id;sensor_type;location;lat;lon;timestamp;P1;durP1;ratioP1;P2;durP2;ratioP2
4122;SDS011;2075;51.062;6.920;2022-11-30T00:00:16;73.07;;;26.70;;
4122;SDS011;2075;51.062;6.920;2022-11-30T00:03:03;73.83;;;27.33;;
4122;SDS011;2075;51.062;6.920;2022-11-30T00:05:51;83.63;;;27.70;;
4122;SDS011;2075;51.062;6.920;2022-11-30T00:08:38;80.83;;;27.10;;
4122;SDS011;2075;51.062;6.920;2022-11-30T00:11:24;93.60;;;27.50;;
4122;SDS011;2075;51.062;6.920;2022-11-30T00:14:11;80.80;;;28.10;;
4122;SDS011;2075;51.062;6.920;2022-11-30T00:16:56;80.60;;;25.87;;
4122;SDS011;2075;51.062;6.920;2022-11-30T00:19:42;85.20;;;27.30;;
4122;SDS011;2075;51.062;6.920;2022-11-30T00:22:28;85.03;;;26.83;;
4122;SDS011;2075;51.062;6.920;2022-11-30T00:25:14;76.20;;;25.70;;
4122;SDS011;2075;51.062;6.920;2022-11-30T00:28:00;84.57;;;28.17;;
4122;SDS011;2075;51.062;6.920;2022-11-30T00:30:50;78.33;;;26.70;;
4122;SDS011;2075;51.062;6.920;2022-11-30T00:33:40;99.47;;;26.93;;
4122;SDS011;2075;51.062;6.920;2022-11-30T00:36:25;80.73;;;26.30;;
4122;SDS011;2075;51.062;6.920;2022-11-30T00:39:11;71.30;;;25.67;;
4122;SDS011;2075;51.062;6.920;2022-11-30T00:41:57;82.27;;;27.50;;
4122;SDS011;2075;51.062;6.920;2022-11-30T00:44:43;80.37;;;28.27;;
4122;SDS011;2075;51.062;6.920;2022-11-30T00:47:28;80.23;;;28.13;;
4122;SDS011;2075;51.062;6.920;2022-11-30T00:53:21;80.43;;;25.57;;
4122;SDS011;2075;51.062;6.920;2022-11-30T00:56:07;80.20;;;26.70;;
4122;SDS011;2075;51.062;6.920;2022-11-30T00:58:54;79.63;;;27.70;;
4122;SDS011;2075;51.062;6.920;2022-11-30T01:01:39;107.13;;;27.27;;
4122;SDS011;2075;51.062;6.920;2022-11-30T01:04:25;86.80;;;29.30;;
4122;SDS011;2075;51.062;6.920;2022-11-30T01:07:10;97.07;;;28.53;;
4122;SDS011;2075;51.062;6.920;2022-11-30T01:09:55;96.60;;;29.80;;
4122;SDS011;2075;51.062;6.920;2022-11-30T01:12:41;123.67;;;32.90;;
4122;SDS011;2075;51.062;6.920;2022-11-30T01:15:28;107.83;;;29.80;;
4122;SDS011;2075;51.062;6.920;2022-11-30T01:18:14;89.00;;;28.60;;
4122;SDS011;2075;51.062;6.920;2022-11-30T01:20:59;101.97;;;29.47;;
4122;SDS011;2075;51.062;6.920;2022-11-30T01:23:44;104.23;;;29.73;;
4122;SDS011;2075;51.062;6.920;2022-11-30T01:26:30;94.60;;;27.37;;
4122;SDS011;2075;51.062;6.920;2022-11-30T01:29:15;97.97;;;28.63;;
4122;SDS011;2075;51.062;6.920;2022-11-30T01:32:02;91.77;;;27.73;;
4122;SDS011;2075;51.062;6.920;2022-11-30T01:34:48;107.10;;;31.70;;
4122;SDS011;2075;51.062;6.920;2022-11-30T01:37:34;105.43;;;27.77;;
4122;SDS011;2075;51.062;6.920;2022-11-30T01:40:19;94.37;;;30.70;;
4122;SDS011;2075;51.062;6.920;2022-11-30T01:43:08;105.97;;;30.70;;
4122;SDS011;2075;51.062;6.920;2022-11-30T01:45:54;93.63;;;27.87;;
4122;SDS011;2075;51.062;6.920;2022-11-30T01:48:41;91.23;;;27.13;;
4122;SDS011;2075;51.062;6.920;2022-11-30T01:51:27;98.23;;;32.47;;
4122;SDS011;2075;51.062;6.920;2022-11-30T01:54:18;92.73;;;28.90;;
4122;SDS011;2075;51.062;6.920;2022-11-30T01:57:07;91.47;;;31.27;;
4122;SDS011;2075;51.062;6.920;2022-11-30T01:59:57;87.53;;;28.83;;
4122;SDS011;2075;51.062;6.920;2022-11-30T02:02:47;93.20;;;32.10;;
4122;SDS011;2075;51.062;6.920;2022-11-30T02:05:39;114.73;;;30.93;;
4122;SDS011;2075;51.062;6.920;2022-11-30T02:08:25;96.20;;;29.43;;
4122;SDS011;2075;51.062;6.920;2022-11-30T02:11:11;103.27;;;31.10;;
4122;SDS011;2075;51.062;6.920;2022-11-30T02:14:01;101.97;;;31.80;;
4122;SDS011;2075;51.062;6.920;2022-11-30T02:17:00;110.83;;;30.27;;
4122;SDS011;2075;51.062;6.920;2022-11-30T02:20:00;105.07;;;30.50;;
4122;SDS011;2075;51.062;6.920;2022-11-30T02:23:11;91.63;;;29.60;;
4122;SDS011;2075;51.062;6.920;2022-11-30T02:26:21;88.57;;;27.77;;
4122;SDS011;2075;51.062;6.920;2022-11-30T02:29:21;93.53;;;28.33;;
4122;SDS011;2075;51.062;6.920;2022-11-30T02:32:09;105.07;;;29.80;;
4122;SDS011;2075;51.062;6.920;2022-11-30T02:34:59;92.60;;;28.20;;
4122;SDS011;2075;51.062;6.920;2022-11-30T02:37:47;92.43;;;28.77;;
4122;SDS011;2075;51.062;6.920;2022-11-30T02:40:35;100.90;;;28.80;;
4122;SDS011;2075;51.062;6.920;2022-11-30T02:43:21;81.07;;;27.40;;
4122;SDS011;2075;51.062;6.920;2022-11-30T02:46:13;81.83;;;27.40;;
4122;SDS011;2075;51.062;6.920;2022-11-30T02:49:03;77.53;;;27.23;;
4122;SDS011;2075;51.062;6.920;2022-11-30T02:51:54;80.10;;;25.10;;
4122;SDS011;2075;51.062;6.920;2022-11-30T02:54:41;76.27;;;25.70;;
4122;SDS011;2075;51.062;6.920;2022-11-30T02:57:27;83.60;;;28.13;;
4122;SDS011;2075;51.062;6.920;2022-11-30T03:00:13;87.13;;;27.00;;
4122;SDS011;2075;51.062;6.920;2022-11-30T03:03:00;82.00;;;26.10;;
4122;SDS011;2075;51.062;6.920;2022-11-30T03:05:46;85.87;;;26.70;;
4122;SDS011;2075;51.062;6.920;2022-11-30T03:08:31;78.43;;;26.23;;
4122;SDS011;2075;51.062;6.920;2022-11-30T03:11:16;89.63;;;27.33;;
4122;SDS011;2075;51.062;6.920;2022-11-30T03:14:02;87.90;;;26.97;;
4122;SDS011;2075;51.062;6.920;2022-11-30T03:16:47;102.23;;;29.10;;
4122;SDS011;2075;51.062;6.920;2022-11-30T03:19:34;111.27;;;28.13;;
4122;SDS011;2075;51.062;6.920;2022-11-30T03:22:19;113.93;;;30.93;;
4122;SDS011;2075;51.062;6.920;2022-11-30T03:25:05;115.23;;;31.10;;
4122;SDS011;2075;51.062;6.920;2022-11-30T03:27:51;105.23;;;29.57;;
4122;SDS011;2075;51.062;6.920;2022-11-30T03:30:36;118.17;;;31.37;;
4122;SDS011;2075;51.062;6.920;2022-11-30T03:33:21;121.27;;;30.90;;
4122;SDS011;2075;51.062;6.920;2022-11-30T03:36:09;109.63;;;29.43;;
4122;SDS011;2075;51.062;6.920;2022-11-30T03:38:55;120.00;;;30.83;;
4122;SDS011;2075;51.062;6.920;2022-11-30T03:41:41;109.60;;;30.53;;
4122;SDS011;2075;51.062;6.920;2022-11-30T03:44:26;147.93;;;32.60;;
4122;SDS011;2075;51.062;6.920;2022-11-30T03:47:12;113.77;;;31.87;;
4122;SDS011;2075;51.062;6.920;2022-11-30T03:49:57;157.20;;;33.00;;
4122;SDS011;2075;51.062;6.920;2022-11-30T03:52:44;118.33;;;32.10;;
4122;SDS011;2075;51.062;6.920;2022-11-30T03:55:29;113.50;;;31.53;;
4122;SDS011;2075;51.062;6.920;2022-11-30T03:58:15;112.03;;;31.33;;
4122;SDS011;2075;51.062;6.920;2022-11-30T04:01:00;121.43;;;33.37;;
4122;SDS011;2075;51.062;6.920;2022-11-30T04:03:46;121.67;;;30.10;;
4122;SDS011;2075;51.062;6.920;2022-11-30T04:06:32;117.67;;;31.17;;
4122;SDS011;2075;51.062;6.920;2022-11-30T04:09:19;120.37;;;30.37;;
4122;SDS011;2075;51.062;6.920;2022-11-30T04:12:05;138.73;;;30.77;;
4122;SDS011;2075;51.062;6.920;2022-11-30T04:14:50;107.37;;;28.40;;
4122;SDS011;2075;51.062;6.920;2022-11-30T04:17:36;118.13;;;29.60;;
4122;SDS011;2075;51.062;6.920;2022-11-30T04:20:21;102.40;;;29.83;;
4122;SDS011;2075;51.062;6.920;2022-11-30T04:23:07;111.63;;;30.60;;
4122;SDS011;2075;51.062;6.920;2022-11-30T04:25:53;106.77;;;28.20;;
4122;SDS011;2075;51.062;6.920;2022-11-30T04:28:40;101.07;;;28.63;;
4122;SDS011;2075;51.062;6.920;2022-11-30T04:31:26;107.70;;;30.50;;
4122;SDS011;2075;51.062;6.920;2022-11-30T04:34:11;83.30;;;26.83;;
4122;SDS011;2075;51.062;6.920;2022-11-30T04:36:56;79.80;;;26.67;;
4122;SDS011;2075;51.062;6.920;2022-11-30T04:39:41;79.40;;;27.50;;
4122;SDS011;2075;51.062;6.920;2022-11-30T04:42:29;81.07;;;25.83;;
4122;SDS011;2075;51.062;6.920;2022-11-30T04:45:14;73.37;;;26.17;;
4122;SDS011;2075;51.062;6.920;2022-11-30T04:48:00;70.07;;;24.80;;
4122;SDS011;2075;51.062;6.920;2022-11-30T04:50:45;71.77;;;24.30;;
4122;SDS011;2075;51.062;6.920;2022-11-30T04:53:30;67.40;;;23.90;;
4122;SDS011;2075;51.062;6.920;2022-11-30T04:56:16;72.43;;;24.93;;
4122;SDS011;2075;51.062;6.920;2022-11-30T04:59:03;72.60;;;24.90;;
4122;SDS011;2075;51.062;6.920;2022-11-30T05:01:48;77.50;;;25.67;;
4122;SDS011;2075;51.062;6.920;2022-11-30T05:04:33;93.33;;;30.67;;
4122;SDS011;2075;51.062;6.920;2022-11-30T05:07:19;98.33;;;32.53;;
4122;SDS011;2075;51.062;6.920;2022-11-30T05:10:05;103.80;;;32.27;;
4122;SDS011;2075;51.062;6.920;2022-11-30T05:12:52;104.13;;;31.83;;
4122;SDS011;2075;51.062;6.920;2022-11-30T05:15:39;91.77;;;33.80;;
4122;SDS011;2075;51.062;6.920;2022-11-30T05:18:24;118.90;;;37.37;;
4122;SDS011;2075;51.062;6.920;2022-11-30T05:21:10;105.67;;;35.93;;
4122;SDS011;2075;51.062;6.920;2022-11-30T05:23:55;122.83;;;34.57;;
4122;SDS011;2075;51.062;6.920;2022-11-30T05:26:40;106.57;;;31.23;;
4122;SDS011;2075;51.062;6.920;2022-11-30T05:29:26;116.87;;;34.70;;
4122;SDS011;2075;51.062;6.920;2022-11-30T05:32:12;112.13;;;34.30;;
4122;SDS011;2075;51.062;6.920;2022-11-30T05:34:58;110.30;;;35.43;;
4122;SDS011;2075;51.062;6.920;2022-11-30T05:37:43;120.90;;;36.13;;
4122;SDS011;2075;51.062;6.920;2022-11-30T05:40:29;116.30;;;33.73;;
4122;SDS011;2075;51.062;6.920;2022-11-30T05:43:15;129.20;;;38.93;;
4122;SDS011;2075;51.062;6.920;2022-11-30T05:46:01;132.40;;;35.50;;
4122;SDS011;2075;51.062;6.920;2022-11-30T05:48:49;119.17;;;34.00;;
4122;SDS011;2075;51.062;6.920;2022-11-30T05:51:34;94.03;;;31.20;;
4122;SDS011;2075;51.062;6.920;2022-11-30T05:54:20;98.30;;;31.30;;
4122;SDS011;2075;51.062;6.920;2022-11-30T05:57:05;93.17;;;30.20;;
4122;SDS011;2075;51.062;6.920;2022-11-30T05:59:51;82.40;;;25.97;;
4122;SDS011;2075;51.062;6.920;2022-11-30T06:02:36;78.90;;;25.67;;
4122;SDS011;2075;51.062;6.920;2022-11-30T06:05:23;73.33;;;24.50;;
4122;SDS011;2075;51.062;6.920;2022-11-30T06:08:09;69.07;;;25.07;;
4122;SDS011;2075;51.062;6.920;2022-11-30T06:10:58;80.93;;;26.40;;
4122;SDS011;2075;51.062;6.920;2022-11-30T06:13:44;73.60;;;25.50;;
4122;SDS011;2075;51.062;6.920;2022-11-30T06:16:29;68.00;;;24.03;;
4122;SDS011;2075;51.062;6.920;2022-11-30T06:19:15;69.10;;;25.67;;
4122;SDS011;2075;51.062;6.920;2022-11-30T06:22:01;55.57;;;22.93;;
4122;SDS011;2075;51.062;6.920;2022-11-30T06:24:47;58.50;;;23.17;;
4122;SDS011;2075;51.062;6.920;2022-11-30T06:27:32;53.33;;;22.10;;
4122;SDS011;2075;51.062;6.920;2022-11-30T06:30:18;61.40;;;21.73;;
4122;SDS011;2075;51.062;6.920;2022-11-30T06:33:03;51.80;;;21.30;;
4122;SDS011;2075;51.062;6.920;2022-11-30T06:35:49;55.93;;;20.43;;
4122;SDS011;2075;51.062;6.920;2022-11-30T06:38:37;56.07;;;21.40;;
4122;SDS011;2075;51.062;6.920;2022-11-30T06:41:22;54.97;;;23.40;;
4122;SDS011;2075;51.062;6.920;2022-11-30T06:44:09;66.27;;;24.90;;
4122;SDS011;2075;51.062;6.920;2022-11-30T06:46:55;57.93;;;25.73;;
4122;SDS011;2075;51.062;6.920;2022-11-30T06:49:40;57.70;;;24.50;;
4122;SDS011;2075;51.062;6.920;2022-11-30T06:52:25;53.90;;;23.47;;
4122;SDS011;2075;51.062;6.920;2022-11-30T06:55:12;60.53;;;22.50;;
4122;SDS011;2075;51.062;6.920;2022-11-30T06:58:02;49.80;;;21.93;;
4122;SDS011;2075;51.062;6.920;2022-11-30T07:00:49;45.60;;;20.30;;
4122;SDS011;2075;51.062;6.920;2022-11-30T07:03:34;47.47;;;20.10;;
4122;SDS011;2075;51.062;6.920;2022-11-30T07:06:20;46.13;;;19.30;;
4122;SDS011;2075;51.062;6.920;2022-11-30T07:09:06;46.63;;;20.33;;
4122;SDS011;2075;51.062;6.920;2022-11-30T07:11:54;49.87;;;19.80;;
4122;SDS011;2075;51.062;6.920;2022-11-30T07:14:39;51.23;;;20.67;;
4122;SDS011;2075;51.062;6.920;2022-11-30T07:17:25;46.53;;;20.50;;
4122;SDS011;2075;51.062;6.920;2022-11-30T07:20:10;41.73;;;18.20;;
4122;SDS011;2075;51.062;6.920;2022-11-30T07:22:56;44.83;;;18.20;;
4122;SDS011;2075;51.062;6.920;2022-11-30T07:26:01;41.87;;;18.73;;
4122;SDS011;2075;51.062;6.920;2022-11-30T07:28:51;44.20;;;19.90;;
4122;SDS011;2075;51.062;6.920;2022-11-30T07:31:40;45.43;;;18.93;;
4122;SDS011;2075;51.062;6.920;2022-11-30T07:34:26;44.83;;;19.97;;
4122;SDS011;2075;51.062;6.920;2022-11-30T07:37:11;41.93;;;18.53;;
4122;SDS011;2075;51.062;6.920;2022-11-30T07:39:57;42.07;;;18.93;;
4122;SDS011;2075;51.062;6.920;2022-11-30T07:42:42;41.93;;;19.50;;
4122;SDS011;2075;51.062;6.920;2022-11-30T07:45:29;54.97;;;20.70;;
4122;SDS011;2075;51.062;6.920;2022-11-30T07:48:14;39.90;;;19.60;;
4122;SDS011;2075;51.062;6.920;2022-11-30T07:51:00;45.03;;;21.13;;
4122;SDS011;2075;51.062;6.920;2022-11-30T07:53:47;47.30;;;20.10;;
4122;SDS011;2075;51.062;6.920;2022-11-30T07:56:32;43.00;;;21.00;;
4122;SDS011;2075;51.062;6.920;2022-11-30T07:59:18;42.17;;;17.53;;
4122;SDS011;2075;51.062;6.920;2022-11-30T08:02:05;46.17;;;20.87;;
4122;SDS011;2075;51.062;6.920;2022-11-30T08:04:51;47.13;;;20.80;;
4122;SDS011;2075;51.062;6.920;2022-11-30T08:07:39;47.77;;;20.30;;
4122;SDS011;2075;51.062;6.920;2022-11-30T08:10:24;47.13;;;20.70;;
4122;SDS011;2075;51.062;6.920;2022-11-30T08:13:10;40.43;;;19.00;;
4122;SDS011;2075;51.062;6.920;2022-11-30T08:15:59;45.03;;;18.37;;
4122;SDS011;2075;51.062;6.920;2022-11-30T08:18:46;40.80;;;18.93;;
4122;SDS011;2075;51.062;6.920;2022-11-30T08:21:32;39.90;;;17.00;;
4122;SDS011;2075;51.062;6.920;2022-11-30T08:24:18;38.57;;;17.37;;
4122;SDS011;2075;51.062;6.920;2022-11-30T08:27:03;39.70;;;17.77;;
4122;SDS011;2075;51.062;6.920;2022-11-30T08:29:49;37.17;;;18.40;;
4122;SDS011;2075;51.062;6.920;2022-11-30T08:32:40;41.23;;;18.07;;
4122;SDS011;2075;51.062;6.920;2022-11-30T08:35:27;38.87;;;17.77;;
4122;SDS011;2075;51.062;6.920;2022-11-30T08:38:13;39.10;;;18.00;;
4122;SDS011;2075;51.062;6.920;2022-11-30T08:40:59;36.73;;;17.43;;
4122;SDS011;2075;51.062;6.920;2022-11-30T08:43:45;35.23;;;17.60;;
4122;SDS011;2075;51.062;6.920;2022-11-30T08:46:32;38.93;;;16.57;;
4122;SDS011;2075;51.062;6.920;2022-11-30T08:49:18;40.20;;;20.03;;
4122;SDS011;2075;51.062;6.920;2022-11-30T08:52:07;43.57;;;21.27;;
4122;SDS011;2075;51.062;6.920;2022-11-30T08:54:53;40.03;;;19.90;;
4122;SDS011;2075;51.062;6.920;2022-11-30T08:57:39;46.50;;;19.97;;
4122;SDS011;2075;51.062;6.920;2022-11-30T09:00:25;46.70;;;22.47;;
4122;SDS011;2075;51.062;6.920;2022-11-30T09:03:11;43.13;;;20.60;;
4122;SDS011;2075;51.062;6.920;2022-11-30T09:06:01;37.63;;;19.10;;
4122;SDS011;2075;51.062;6.920;2022-11-30T09:08:58;40.50;;;20.60;;
4122;SDS011;2075;51.062;6.920;2022-11-30T09:11:44;41.53;;;20.20;;
4122;SDS011;2075;51.062;6.920;2022-11-30T09:14:32;41.90;;;21.10;;
4122;SDS011;2075;51.062;6.920;2022-11-30T09:17:17;43.63;;;21.00;;
4122;SDS011;2075;51.062;6.920;2022-11-30T09:20:03;39.97;;;20.80;;
4122;SDS011;2075;51.062;6.920;2022-11-30T09:22:50;47.20;;;21.60;;
4122;SDS011;2075;51.062;6.920;2022-11-30T09:25:37;42.03;;;21.20;;
4122;SDS011;2075;51.062;6.920;2022-11-30T09:28:23;43.80;;;20.30;;
4122;SDS011;2075;51.062;6.920;2022-11-30T09:31:11;45.07;;;21.27;;
4122;SDS011;2075;51.062;6.920;2022-11-30T09:33:57;43.30;;;19.57;;
4122;SDS011;2075;51.062;6.920;2022-11-30T09:36:43;45.17;;;21.03;;
4122;SDS011;2075;51.062;6.920;2022-11-30T09:39:29;47.43;;;22.23;;
4122;SDS011;2075;51.062;6.920;2022-11-30T09:45:32;55.80;;;20.77;;
4122;SDS011;2075;51.062;6.920;2022-11-30T09:48:23;50.27;;;23.07;;
4122;SDS011;2075;51.062;6.920;2022-11-30T09:51:16;52.80;;;23.13;;
4122;SDS011;2075;51.062;6.920;2022-11-30T09:54:05;54.00;;;23.87;;
4122;SDS011;2075;51.062;6.920;2022-11-30T09:56:57;53.20;;;24.67;;
4122;SDS011;2075;51.062;6.920;2022-11-30T09:59:45;54.43;;;26.37;;
4122;SDS011;2075;51.062;6.920;2022-11-30T10:02:36;58.13;;;25.30;;
4122;SDS011;2075;51.062;6.920;2022-11-30T10:05:23;51.33;;;25.87;;
4122;SDS011;2075;51.062;6.920;2022-11-30T10:08:19;68.37;;;26.30;;
4122;SDS011;2075;51.062;6.920;2022-11-30T10:11:18;50.17;;;25.57;;
4122;SDS011;2075;51.062;6.920;2022-11-30T10:14:28;55.33;;;25.33;;
4122;SDS011;2075;51.062;6.920;2022-11-30T10:17:28;59.20;;;25.37;;
4122;SDS011;2075;51.062;6.920;2022-11-30T10:20:24;61.43;;;28.57;;
4122;SDS011;2075;51.062;6.920;2022-11-30T10:23:27;63.83;;;28.93;;
4122;SDS011;2075;51.062;6.920;2022-11-30T10:26:27;64.40;;;29.00;;
4122;SDS011;2075;51.062;6.920;2022-11-30T10:29:17;72.53;;;31.43;;
4122;SDS011;2075;51.062;6.920;2022-11-30T10:32:09;70.17;;;30.53;;
4122;SDS011;2075;51.062;6.920;2022-11-30T10:35:00;77.17;;;33.17;;
4122;SDS011;2075;51.062;6.920;2022-11-30T10:37:57;89.70;;;34.77;;
4122;SDS011;2075;51.062;6.920;2022-11-30T10:40:49;86.73;;;36.73;;
4122;SDS011;2075;51.062;6.920;2022-11-30T10:43:38;89.90;;;37.13;;
4122;SDS011;2075;51.062;6.920;2022-11-30T10:46:31;84.47;;;34.60;;
4122;SDS011;2075;51.062;6.920;2022-11-30T10:49:21;85.27;;;35.00;;
4122;SDS011;2075;51.062;6.920;2022-11-30T10:52:10;78.43;;;34.10;;
4122;SDS011;2075;51.062;6.920;2022-11-30T10:54:58;89.43;;;35.40;;
4122;SDS011;2075;51.062;6.920;2022-11-30T10:57:45;83.80;;;34.60;;
4122;SDS011;2075;51.062;6.920;2022-11-30T11:00:33;86.33;;;34.20;;
4122;SDS011;2075;51.062;6.920;2022-11-30T11:03:21;76.93;;;33.97;;
4122;SDS011;2075;51.062;6.920;2022-11-30T11:06:13;80.43;;;33.47;;
4122;SDS011;2075;51.062;6.920;2022-11-30T11:09:03;79.53;;;33.70;;
4122;SDS011;2075;51.062;6.920;2022-11-30T11:12:13;83.90;;;34.20;;
4122;SDS011;2075;51.062;6.920;2022-11-30T11:15:06;80.57;;;36.10;;
4122;SDS011;2075;51.062;6.920;2022-11-30T11:18:11;80.40;;;34.53;;
4122;SDS011;2075;51.062;6.920;2022-11-30T11:21:06;89.60;;;34.73;;
4122;SDS011;2075;51.062;6.920;2022-11-30T11:24:07;99.30;;;37.00;;
4122;SDS011;2075;51.062;6.920;2022-11-30T11:26:54;81.10;;;33.93;;
4122;SDS011;2075;51.062;6.920;2022-11-30T11:29:41;86.93;;;36.30;;
4122;SDS011;2075;51.062;6.920;2022-11-30T11:32:27;96.73;;;40.20;;
4122;SDS011;2075;51.062;6.920;2022-11-30T11:38:19;78.13;;;34.07;;
4122;SDS011;2075;51.062;6.920;2022-11-30T11:44:24;80.37;;;33.40;;
4122;SDS011;2075;51.062;6.920;2022-11-30T11:51:41;75.67;;;32.00;;
4122;SDS011;2075;51.062;6.920;2022-11-30T11:55:58;83.70;;;33.10;;
4122;SDS011;2075;51.062;6.920;2022-11-30T11:59:20;75.57;;;31.17;;
4122;SDS011;2075;51.062;6.920;2022-11-30T12:03:07;82.03;;;31.40;;
4122;SDS011;2075;51.062;6.920;2022-11-30T12:10:22;74.90;;;32.07;;
4122;SDS011;2075;51.062;6.920;2022-11-30T12:13:15;70.50;;;30.63;;
4122;SDS011;2075;51.062;6.920;2022-11-30T12:16:36;65.60;;;29.17;;
4122;SDS011;2075;51.062;6.920;2022-11-30T12:29:18;62.00;;;27.07;;
4122;SDS011;2075;51.062;6.920;2022-11-30T12:36:44;67.07;;;28.10;;
4122;SDS011;2075;51.062;6.920;2022-11-30T12:40:19;61.67;;;25.23;;
4122;SDS011;2075;51.062;6.920;2022-11-30T12:44:02;65.50;;;27.00;;
4122;SDS011;2075;51.062;6.920;2022-11-30T12:52:00;58.90;;;28.27;;
4122;SDS011;2075;51.062;6.920;2022-11-30T12:55:31;51.50;;;23.37;;
4122;SDS011;2075;51.062;6.920;2022-11-30T13:10:38;60.28;;;29.20;;
4122;SDS011;2075;51.062;6.920;2022-11-30T13:13:30;55.33;;;25.80;;
4122;SDS011;2075;51.062;6.920;2022-11-30T13:16:27;56.97;;;24.97;;
4122;SDS011;2075;51.062;6.920;2022-11-30T13:19:28;62.20;;;25.07;;
4122;SDS011;2075;51.062;6.920;2022-11-30T13:22:51;53.53;;;24.10;;
4122;SDS011;2075;51.062;6.920;2022-11-30T13:25:44;58.10;;;25.27;;
4122;SDS011;2075;51.062;6.920;2022-11-30T13:28:40;55.87;;;24.27;;
4122;SDS011;2075;51.062;6.920;2022-11-30T13:31:47;57.83;;;24.63;;
4122;SDS011;2075;51.062;6.920;2022-11-30T13:47:32;55.83;;;25.37;;
4122;SDS011;2075;51.062;6.920;2022-11-30T13:54:05;56.40;;;25.47;;
4122;SDS011;2075;51.062;6.920;2022-11-30T14:01:26;57.07;;;26.90;;
4122;SDS011;2075;51.062;6.920;2022-11-30T14:12:57;55.57;;;25.27;;
4122;SDS011;2075;51.062;6.920;2022-11-30T14:18:41;62.07;;;26.10;;
4122;SDS011;2075;51.062;6.920;2022-11-30T14:21:29;64.23;;;25.97;;
4122;SDS011;2075;51.062;6.920;2022-11-30T14:24:18;61.73;;;26.67;;
4122;SDS011;2075;51.062;6.920;2022-11-30T14:27:08;59.90;;;25.97;;
4122;SDS011;2075;51.062;6.920;2022-11-30T14:30:03;65.37;;;27.93;;
4122;SDS011;2075;51.062;6.920;2022-11-30T14:32:50;70.47;;;26.00;;
4122;SDS011;2075;51.062;6.920;2022-11-30T14:35:41;59.87;;;25.07;;
4122;SDS011;2075;51.062;6.920;2022-11-30T14:38:29;66.10;;;27.77;;
4122;SDS011;2075;51.062;6.920;2022-11-30T14:41:19;67.80;;;27.63;;
4122;SDS011;2075;51.062;6.920;2022-11-30T14:44:09;66.40;;;28.07;;
4122;SDS011;2075;51.062;6.920;2022-11-30T14:47:00;64.70;;;27.40;;
4122;SDS011;2075;51.062;6.920;2022-11-30T14:49:57;76.27;;;28.50;;
4122;SDS011;2075;51.062;6.920;2022-11-30T14:52:48;75.40;;;28.90;;
4122;SDS011;2075;51.062;6.920;2022-11-30T14:55:44;68.93;;;27.00;;
4122;SDS011;2075;51.062;6.920;2022-11-30T14:58:36;62.93;;;26.27;;
4122;SDS011;2075;51.062;6.920;2022-11-30T15:01:26;60.87;;;27.77;;
4122;SDS011;2075;51.062;6.920;2022-11-30T15:04:16;69.17;;;31.10;;
4122;SDS011;2075;51.062;6.920;2022-11-30T15:07:01;68.80;;;29.10;;
4122;SDS011;2075;51.062;6.920;2022-11-30T15:09:48;67.57;;;29.40;;
4122;SDS011;2075;51.062;6.920;2022-11-30T15:12:37;68.70;;;28.23;;
4122;SDS011;2075;51.062;6.920;2022-11-30T15:15:28;71.20;;;31.20;;
4122;SDS011;2075;51.062;6.920;2022-11-30T15:18:14;78.50;;;30.00;;
4122;SDS011;2075;51.062;6.920;2022-11-30T15:21:04;77.43;;;30.20;;
4122;SDS011;2075;51.062;6.920;2022-11-30T15:23:59;75.87;;;29.27;;
4122;SDS011;2075;51.062;6.920;2022-11-30T15:26:50;70.83;;;27.73;;
4122;SDS011;2075;51.062;6.920;2022-11-30T15:29:41;72.10;;;28.83;;
4122;SDS011;2075;51.062;6.920;2022-11-30T15:32:29;62.50;;;27.80;;
4122;SDS011;2075;51.062;6.920;2022-11-30T15:35:18;70.57;;;27.93;;
4122;SDS011;2075;51.062;6.920;2022-11-30T15:38:07;65.63;;;27.03;;
4122;SDS011;2075;51.062;6.920;2022-11-30T15:40:59;69.47;;;28.03;;
4122;SDS011;2075;51.062;6.920;2022-11-30T15:43:47;63.40;;;26.50;;
4122;SDS011;2075;51.062;6.920;2022-11-30T15:46:36;68.20;;;28.37;;
4122;SDS011;2075;51.062;6.920;2022-11-30T15:49:24;84.70;;;31.47;;
4122;SDS011;2075;51.062;6.920;2022-11-30T15:52:14;68.50;;;29.33;;
4122;SDS011;2075;51.062;6.920;2022-11-30T15:55:02;72.17;;;29.10;;
4122;SDS011;2075;51.062;6.920;2022-11-30T15:57:55;60.67;;;28.10;;
4122;SDS011;2075;51.062;6.920;2022-11-30T16:00:42;54.10;;;26.20;;
4122;SDS011;2075;51.062;6.920;2022-11-30T16:03:59;58.17;;;26.47;;
4122;SDS011;2075;51.062;6.920;2022-11-30T16:06:50;62.83;;;27.40;;
4122;SDS011;2075;51.062;6.920;2022-11-30T16:09:36;56.77;;;25.87;;
4122;SDS011;2075;51.062;6.920;2022-11-30T16:12:25;64.37;;;30.30;;
4122;SDS011;2075;51.062;6.920;2022-11-30T16:15:15;58.37;;;25.80;;
4122;SDS011;2075;51.062;6.920;2022-11-30T16:18:08;56.40;;;27.03;;
4122;SDS011;2075;51.062;6.920;2022-11-30T16:20:59;63.00;;;26.13;;
4122;SDS011;2075;51.062;6.920;2022-11-30T16:23:45;57.50;;;26.07;;
4122;SDS011;2075;51.062;6.920;2022-11-30T16:26:32;51.77;;;25.43;;
4122;SDS011;2075;51.062;6.920;2022-11-30T16:29:19;54.57;;;25.03;;
4122;SDS011;2075;51.062;6.920;2022-11-30T16:32:08;49.37;;;22.33;;
4122;SDS011;2075;51.062;6.920;2022-11-30T16:34:54;54.73;;;23.90;;
4122;SDS011;2075;51.062;6.920;2022-11-30T16:37:40;51.33;;;24.23;;
4122;SDS011;2075;51.062;6.920;2022-11-30T16:40:26;53.60;;;24.60;;
4122;SDS011;2075;51.062;6.920;2022-11-30T16:43:12;43.80;;;23.00;;
4122;SDS011;2075;51.062;6.920;2022-11-30T16:45:59;51.43;;;22.30;;
4122;SDS011;2075;51.062;6.920;2022-11-30T16:48:46;47.43;;;22.63;;
4122;SDS011;2075;51.062;6.920;2022-11-30T16:51:32;54.77;;;24.40;;
4122;SDS011;2075;51.062;6.920;2022-11-30T16:54:19;46.40;;;23.70;;
4122;SDS011;2075;51.062;6.920;2022-11-30T16:57:05;54.73;;;23.60;;
4122;SDS011;2075;51.062;6.920;2022-11-30T16:59:51;52.17;;;23.17;;
4122;SDS011;2075;51.062;6.920;2022-11-30T17:02:40;53.03;;;24.10;;
4122;SDS011;2075;51.062;6.920;2022-11-30T17:05:30;50.70;;;24.40;;
4122;SDS011;2075;51.062;6.920;2022-11-30T17:08:16;52.10;;;23.10;;
4122;SDS011;2075;51.062;6.920;2022-11-30T17:11:02;50.80;;;23.07;;
4122;SDS011;2075;51.062;6.920;2022-11-30T17:13:47;48.00;;;23.30;;
4122;SDS011;2075;51.062;6.920;2022-11-30T17:16:34;48.30;;;24.03;;
4122;SDS011;2075;51.062;6.920;2022-11-30T17:19:21;50.83;;;23.33;;
4122;SDS011;2075;51.062;6.920;2022-11-30T17:22:07;46.63;;;21.77;;
4122;SDS011;2075;51.062;6.920;2022-11-30T17:24:52;47.40;;;22.90;;
4122;SDS011;2075;51.062;6.920;2022-11-30T17:27:38;57.90;;;24.47;;
4122;SDS011;2075;51.062;6.920;2022-11-30T17:30:24;47.57;;;23.27;;
4122;SDS011;2075;51.062;6.920;2022-11-30T17:33:11;50.23;;;23.10;;
4122;SDS011;2075;51.062;6.920;2022-11-30T17:35:58;50.93;;;23.13;;
4122;SDS011;2075;51.062;6.920;2022-11-30T17:38:47;43.93;;;23.20;;
4122;SDS011;2075;51.062;6.920;2022-11-30T17:41:33;47.67;;;24.20;;
4122;SDS011;2075;51.062;6.920;2022-11-30T17:44:19;47.90;;;21.80;;
4122;SDS011;2075;51.062;6.920;2022-11-30T17:47:04;49.10;;;23.50;;
4122;SDS011;2075;51.062;6.920;2022-11-30T17:49:50;44.30;;;21.77;;
4122;SDS011;2075;51.062;6.920;2022-11-30T17:52:37;44.93;;;22.27;;
4122;SDS011;2075;51.062;6.920;2022-11-30T17:55:22;50.60;;;22.37;;
4122;SDS011;2075;51.062;6.920;2022-11-30T17:58:08;46.50;;;21.67;;
4122;SDS011;2075;51.062;6.920;2022-11-30T18:00:53;52.93;;;24.90;;
4122;SDS011;2075;51.062;6.920;2022-11-30T18:03:39;49.10;;;23.40;;
4122;SDS011;2075;51.062;6.920;2022-11-30T18:06:25;53.83;;;23.53;;
4122;SDS011;2075;51.062;6.920;2022-11-30T18:09:12;44.30;;;22.23;;
4122;SDS011;2075;51.062;6.920;2022-11-30T18:11:57;49.97;;;22.07;;
4122;SDS011;2075;51.062;6.920;2022-11-30T18:14:44;48.00;;;22.33;;
4122;SDS011;2075;51.062;6.920;2022-11-30T18:17:29;48.70;;;23.77;;
4122;SDS011;2075;51.062;6.920;2022-11-30T18:20:14;44.27;;;22.43;;
4122;SDS011;2075;51.062;6.920;2022-11-30T18:23:01;47.67;;;22.50;;